createdAt,value
2022-10-05T00:02:19.119Z,13.90
2022-10-05T00:04:47.132Z,13.52
2022-10-05T00:07:18.573Z,13.60
2022-10-05T00:09:48.224Z,14.60
2022-10-05T00:12:17.550Z,12.18
2022-10-05T00:14:45.946Z,14.07
2022-10-05T00:17:22.083Z,15.32
2022-10-05T00:19:52.283Z,12.15
2022-10-05T00:22:24.821Z,15.38
2022-10-05T00:24:56.486Z,12.80
2022-10-05T00:27:26.115Z,13.02
2022-10-05T00:29:58.770Z,15.57
2022-10-05T00:32:26.208Z,12.55
2022-10-05T00:34:54.602Z,13.63
2022-10-05T00:37:21.139Z,12.88
2022-10-05T00:39:49.463Z,13.25
2022-10-05T00:42:35.136Z,12.95
2022-10-05T00:45:12.817Z,10.45
2022-10-05T00:47:49.669Z,12.50
2022-10-05T00:50:17.896Z,14.10
2022-10-05T00:52:50.242Z,12.15
2022-10-05T00:55:37.886Z,12.15
2022-10-05T00:58:19.562Z,10.25
2022-10-05T01:00:52.292Z,10.23
2022-10-05T01:03:29.867Z,10.70
2022-10-05T01:06:12.711Z,11.73
2022-10-05T01:08:54.389Z,13.65
2022-10-05T01:11:30.613Z,13.88
2022-10-05T01:14:34.869Z,9.25
2022-10-05T01:17:09.635Z,10.82
2022-10-05T01:19:45.758Z,14.10
2022-10-05T01:22:41.889Z,10.57
2022-10-05T01:25:26.882Z,8.98
2022-10-05T01:27:57.637Z,10.02
2022-10-05T01:30:24.256Z,9.57
2022-10-05T01:33:05.151Z,9.90
2022-10-05T01:35:45.734Z,11.77
2022-10-05T01:38:35.930Z,9.45
2022-10-05T01:41:20.601Z,9.63
2022-10-05T01:43:52.139Z,9.10
2022-10-05T01:46:24.662Z,9.70
2022-10-05T01:49:13.010Z,12.43
2022-10-05T01:51:53.011Z,11.00
2022-10-05T01:54:40.401Z,10.70
2022-10-05T01:57:13.056Z,12.80
2022-10-05T02:00:11.918Z,9.35
2022-10-05T02:02:52.443Z,11.38
2022-10-05T02:05:26.275Z,10.27
2022-10-05T02:08:00.015Z,10.18
2022-10-05T02:13:12.774Z,11.55
2022-10-05T02:15:52.870Z,10.52
2022-10-05T02:18:28.228Z,10.35
2022-10-05T02:20:56.696Z,12.60
2022-10-05T02:23:29.636Z,11.95
2022-10-05T02:25:56.571Z,11.05
2022-10-05T02:28:30.993Z,12.15
2022-10-05T02:31:06.910Z,10.00
2022-10-05T02:33:36.795Z,10.70
2022-10-05T02:36:29.357Z,9.85
2022-10-05T02:39:19.209Z,10.18
2022-10-05T02:42:00.328Z,11.98
2022-10-05T02:44:49.216Z,9.95
2022-10-05T02:47:24.633Z,8.73
2022-10-05T02:50:06.043Z,9.70
2022-10-05T02:53:11.409Z,9.05
2022-10-05T02:56:24.777Z,8.60
2022-10-05T02:59:02.237Z,9.02
2022-10-05T03:01:34.349Z,8.68
2022-10-05T03:04:18.185Z,8.30
2022-10-05T03:06:54.481Z,8.95
2022-10-05T03:09:24.545Z,9.63
2022-10-05T03:12:06.341Z,7.85
2022-10-05T03:14:57.425Z,9.43
2022-10-05T03:18:05.888Z,7.57
2022-10-05T03:20:36.379Z,11.75
2022-10-05T03:23:04.837Z,7.80
2022-10-05T03:25:43.633Z,8.07
2022-10-05T03:28:24.735Z,9.60
2022-10-05T03:31:05.143Z,7.78
2022-10-05T03:33:51.818Z,8.68
2022-10-05T03:36:32.099Z,10.02
2022-10-05T03:39:12.755Z,10.15
2022-10-05T03:41:39.375Z,7.93
2022-10-05T03:44:18.574Z,7.95
2022-10-05T03:46:58.163Z,8.43
2022-10-05T03:49:38.871Z,7.88
2022-10-05T03:52:12.579Z,10.35
2022-10-05T03:57:16.847Z,8.52
2022-10-05T04:00:05.756Z,8.43
2022-10-05T04:03:00.762Z,9.90
2022-10-05T04:05:41.640Z,7.45
2022-10-05T04:08:34.295Z,8.10
2022-10-05T04:11:07.489Z,8.85
2022-10-05T04:13:46.651Z,8.55
2022-10-05T04:16:19.506Z,8.20
2022-10-05T04:19:24.526Z,11.57
2022-10-05T04:21:57.391Z,11.20
2022-10-05T04:24:37.700Z,10.02
2022-10-05T04:27:16.189Z,10.50
2022-10-05T04:30:01.676Z,8.55
2022-10-05T04:32:41.547Z,9.45
2022-10-05T04:35:52.106Z,9.52
2022-10-05T04:38:43.271Z,10.50
2022-10-05T04:41:19.451Z,10.30
2022-10-05T04:44:23.170Z,10.57
2022-10-05T04:47:35.390Z,11.27
2022-10-05T04:50:20.326Z,10.07
2022-10-05T04:53:20.416Z,10.38
2022-10-05T04:56:05.351Z,10.93
2022-10-05T04:58:53.946Z,11.82
2022-10-05T05:01:23.702Z,10.15
2022-10-05T05:04:12.257Z,12.13
2022-10-05T05:06:45.613Z,11.23
2022-10-05T05:09:31.502Z,9.13
2022-10-05T05:12:20.889Z,8.82
2022-10-05T05:15:12.267Z,10.57
2022-10-05T05:18:15.123Z,12.80
2022-10-05T05:21:08.071Z,10.90
2022-10-05T05:23:51.899Z,10.43
2022-10-05T05:26:35.582Z,11.38
2022-10-05T05:29:30.767Z,11.40
2022-10-05T05:32:15.621Z,9.90
2022-10-05T05:35:04.022Z,9.95
2022-10-05T05:37:33.292Z,10.50
2022-10-05T05:40:19.395Z,13.02
2022-10-05T05:42:56.049Z,12.40
2022-10-05T05:45:38.409Z,12.27
2022-10-05T05:48:16.210Z,10.52
2022-10-05T05:50:59.773Z,11.38
2022-10-05T05:53:30.158Z,11.60
2022-10-05T05:56:19.851Z,10.07
2022-10-05T05:58:53.365Z,9.50
2022-10-05T06:01:33.740Z,12.65
2022-10-05T06:04:26.815Z,10.32
2022-10-05T06:06:56.146Z,12.27
2022-10-05T06:09:33.160Z,10.80
2022-10-05T06:12:16.486Z,13.38
2022-10-05T06:15:00.566Z,12.52
2022-10-05T06:17:33.886Z,16.38
2022-10-05T06:20:05.740Z,16.05
2022-10-05T06:22:41.965Z,19.38
2022-10-05T06:25:12.054Z,13.63
2022-10-05T06:28:02.208Z,10.85
2022-10-05T06:31:00.724Z,11.68
2022-10-05T06:33:36.331Z,12.52
2022-10-05T06:36:24.890Z,19.00
2022-10-05T06:39:10.243Z,17.52
2022-10-05T06:41:50.919Z,11.65
2022-10-05T06:45:08.212Z,11.65
2022-10-05T06:48:11.635Z,13.15
2022-10-05T06:51:00.487Z,9.10
2022-10-05T06:53:35.399Z,9.48
2022-10-05T06:56:23.021Z,9.13
2022-10-05T06:59:18.403Z,8.57
2022-10-05T07:02:03.762Z,7.05
2022-10-05T07:04:41.768Z,7.20
2022-10-05T07:07:36.510Z,8.95
2022-10-05T07:10:08.982Z,6.15
2022-10-05T07:13:02.939Z,5.53
2022-10-05T07:15:40.890Z,5.47
2022-10-05T07:18:28.287Z,9.90
2022-10-05T07:21:11.342Z,8.98
2022-10-05T07:24:13.121Z,6.27
2022-10-05T07:26:50.681Z,7.38
2022-10-05T07:29:36.106Z,6.40
2022-10-05T07:32:14.411Z,6.43
2022-10-05T07:34:58.123Z,5.50
2022-10-05T07:37:50.633Z,7.88
2022-10-05T07:40:26.829Z,5.57
2022-10-05T07:43:24.284Z,5.53
2022-10-05T07:45:58.502Z,5.68
2022-10-05T07:48:56.161Z,7.70
2022-10-05T07:52:01.549Z,7.93
2022-10-05T07:54:53.077Z,4.57
2022-10-05T07:57:41.760Z,4.65
2022-10-05T08:00:20.701Z,6.38
2022-10-05T08:03:01.889Z,5.10
2022-10-05T08:05:31.473Z,7.35
2022-10-05T08:08:20.535Z,7.70
2022-10-05T08:11:55.211Z,6.00
2022-10-05T08:14:33.774Z,4.00
2022-10-05T08:17:15.053Z,5.25
2022-10-05T08:19:50.423Z,5.50
2022-10-05T08:22:30.792Z,5.53
2022-10-05T08:25:09.745Z,7.25
2022-10-05T08:27:48.132Z,5.50
2022-10-05T08:30:16.499Z,5.03
2022-10-05T08:32:47.954Z,6.93
2022-10-05T08:35:34.090Z,5.40
2022-10-05T08:38:11.671Z,4.60
2022-10-05T08:40:51.621Z,6.10
2022-10-05T08:43:48.817Z,7.43
2022-10-05T08:46:59.666Z,4.65
2022-10-05T08:50:01.865Z,5.75
2022-10-05T08:52:38.938Z,5.57
2022-10-05T08:55:17.575Z,4.50
2022-10-05T08:58:10.291Z,4.80
2022-10-05T09:00:48.972Z,4.35
2022-10-05T09:03:34.326Z,5.25
2022-10-05T09:06:19.189Z,4.95
2022-10-05T09:09:29.485Z,6.78
2022-10-05T09:12:38.491Z,6.07
2022-10-05T09:15:29.946Z,3.80
2022-10-05T09:18:32.297Z,7.05
2022-10-05T09:21:03.274Z,3.67
2022-10-05T09:23:47.375Z,6.53
2022-10-05T09:26:41.788Z,4.38
2022-10-05T09:29:25.092Z,4.97
2022-10-05T09:32:23.739Z,8.32
2022-10-05T09:34:59.088Z,8.07
2022-10-05T09:37:38.457Z,5.40
2022-10-05T09:40:29.146Z,4.10
2022-10-05T09:43:02.498Z,6.88
2022-10-05T09:48:25.987Z,4.07
2022-10-05T09:51:11.341Z,3.78
2022-10-05T09:54:25.293Z,4.10
2022-10-05T09:57:11.928Z,4.13
2022-10-05T09:59:42.140Z,5.88
2022-10-05T10:02:24.505Z,3.58
2022-10-05T10:05:21.126Z,4.88
2022-10-05T10:08:04.620Z,4.47
2022-10-05T10:13:25.246Z,3.60
2022-10-05T10:16:08.672Z,4.00
2022-10-05T10:18:38.062Z,6.35
2022-10-05T10:21:29.387Z,3.28
2022-10-05T10:24:29.778Z,4.03
2022-10-05T10:27:08.442Z,5.85
2022-10-05T10:29:43.287Z,3.63
2022-10-05T10:32:51.638Z,3.47
2022-10-05T10:35:39.801Z,4.57
2022-10-05T10:38:27.683Z,4.95
2022-10-05T10:41:03.344Z,3.70
2022-10-05T10:44:02.189Z,4.15
2022-10-05T10:46:44.738Z,4.03
2022-10-05T10:49:25.213Z,4.43
2022-10-05T10:52:16.852Z,3.78
2022-10-05T10:55:06.930Z,3.17
2022-10-05T10:58:15.750Z,3.97
2022-10-05T11:00:54.582Z,2.80
2022-10-05T11:03:51.369Z,2.90
2022-10-05T11:06:55.117Z,4.25
2022-10-05T11:09:40.985Z,6.80
2022-10-05T11:12:47.604Z,3.70
2022-10-05T11:15:50.835Z,3.22
2022-10-05T11:18:34.765Z,4.45
2022-10-05T11:21:20.477Z,6.43
2022-10-05T11:24:11.209Z,4.03
2022-10-05T11:26:44.634Z,3.55
2022-10-05T11:29:38.724Z,4.82
2022-10-05T11:32:17.482Z,3.08
2022-10-05T11:35:03.436Z,3.20
2022-10-05T11:37:48.616Z,3.70
2022-10-05T11:40:53.360Z,5.25
2022-10-05T11:43:28.980Z,2.75
2022-10-05T11:46:05.489Z,3.20
2022-10-05T11:48:35.090Z,5.70
2022-10-05T11:51:29.049Z,3.22
2022-10-05T11:54:20.755Z,4.90
2022-10-05T11:57:03.423Z,2.70
2022-10-05T11:59:51.427Z,2.40
2022-10-05T12:02:41.396Z,7.47
2022-10-05T12:05:32.445Z,3.35
2022-10-05T12:08:17.134Z,5.85
2022-10-05T12:11:05.443Z,4.05
2022-10-05T12:14:16.460Z,4.95
2022-10-05T12:17:05.637Z,4.35
2022-10-05T12:19:38.845Z,3.42
2022-10-05T12:25:01.677Z,4.43
2022-10-05T12:27:37.327Z,3.13
2022-10-05T12:30:18.510Z,3.08
2022-10-05T12:33:03.380Z,3.10
2022-10-05T12:35:48.337Z,2.90
2022-10-05T12:38:36.890Z,4.47
2022-10-05T12:41:18.664Z,2.45
2022-10-05T12:44:03.121Z,2.60
2022-10-05T12:46:45.075Z,3.95
2022-10-05T12:49:18.397Z,6.03
2022-10-05T12:51:48.898Z,3.75
2022-10-05T12:54:48.722Z,3.13
2022-10-05T12:57:39.102Z,5.63
2022-10-05T13:00:24.269Z,2.58
2022-10-05T13:02:57.998Z,2.83
2022-10-05T13:05:34.004Z,4.70
2022-10-05T13:08:13.279Z,7.90
2022-10-05T13:10:48.253Z,3.13
2022-10-05T13:13:36.549Z,3.28
2022-10-05T13:16:17.931Z,5.25
2022-10-05T13:18:50.725Z,3.72
2022-10-05T13:21:24.752Z,3.10
2022-10-05T13:24:00.026Z,2.30
2022-10-05T13:26:36.402Z,2.47
2022-10-05T13:29:16.739Z,4.97
2022-10-05T13:31:50.734Z,3.05
2022-10-05T13:34:45.261Z,3.30
2022-10-05T13:37:20.007Z,3.65
2022-10-05T13:39:56.636Z,2.50
2022-10-05T13:42:50.081Z,2.65
2022-10-05T13:45:25.002Z,3.30
2022-10-05T13:48:22.294Z,2.70
2022-10-05T13:51:04.858Z,3.42
2022-10-05T13:53:37.562Z,2.15
2022-10-05T13:56:12.491Z,7.90
2022-10-05T13:58:48.386Z,2.70
2022-10-05T14:01:44.079Z,3.00
2022-10-05T14:04:24.611Z,4.60
2022-10-05T14:06:52.636Z,3.22
2022-10-05T14:09:25.474Z,3.08
2022-10-05T14:12:04.120Z,4.03
2022-10-05T14:14:41.052Z,5.93
2022-10-05T14:17:33.959Z,2.72
2022-10-05T14:20:15.732Z,3.07
2022-10-05T14:22:42.527Z,2.95
2022-10-05T14:25:09.196Z,5.75
2022-10-05T14:27:50.763Z,3.28
2022-10-05T14:30:23.776Z,3.22
2022-10-05T14:32:53.276Z,6.78
2022-10-05T14:35:22.212Z,3.75
2022-10-05T14:37:58.873Z,3.58
2022-10-05T14:40:38.180Z,2.58
2022-10-05T14:43:18.596Z,3.08
2022-10-05T14:46:24.986Z,5.65
2022-10-05T14:49:24.294Z,3.38
2022-10-05T14:51:52.031Z,3.45
2022-10-05T14:54:29.934Z,3.45
2022-10-05T14:57:00.141Z,3.17
2022-10-05T14:59:40.347Z,3.35
2022-10-05T15:02:52.430Z,2.67
2022-10-05T15:05:59.040Z,3.60
2022-10-05T15:08:52.374Z,3.83
2022-10-05T15:11:31.385Z,2.90
2022-10-05T15:13:58.640Z,3.42
2022-10-05T15:16:38.993Z,3.15
2022-10-05T15:19:31.471Z,5.22
2022-10-05T15:22:01.163Z,4.25
2022-10-05T15:24:38.908Z,3.45
2022-10-05T15:27:17.257Z,5.75
2022-10-05T15:29:59.917Z,2.88
2022-10-05T15:32:42.031Z,2.80
2022-10-05T15:35:40.477Z,5.10
2022-10-05T15:38:20.904Z,2.85
2022-10-05T15:41:11.527Z,2.95
2022-10-05T15:43:58.582Z,2.53
2022-10-05T15:46:39.912Z,4.90
2022-10-05T15:49:25.567Z,2.15
2022-10-05T15:52:14.170Z,3.83
2022-10-05T15:55:32.182Z,4.18
2022-10-05T15:58:10.899Z,2.70
2022-10-05T16:00:48.679Z,2.35
2022-10-05T16:03:49.793Z,2.22
2022-10-05T16:06:56.321Z,3.58
2022-10-05T16:09:41.107Z,3.95
2022-10-05T16:12:18.581Z,5.60
2022-10-05T16:15:03.586Z,4.90
2022-10-05T16:17:49.078Z,5.03
2022-10-05T16:20:41.049Z,4.50
2022-10-05T16:23:35.571Z,5.82
2022-10-05T16:26:23.956Z,4.57
2022-10-05T16:28:56.608Z,5.30
2022-10-05T16:31:39.326Z,4.22
2022-10-05T16:34:36.701Z,5.83
2022-10-05T16:37:35.404Z,7.72
2022-10-05T16:40:28.477Z,5.95
2022-10-05T16:43:04.411Z,5.07
2022-10-05T16:46:01.852Z,6.20
2022-10-05T16:48:38.341Z,4.28
2022-10-05T16:51:20.351Z,6.00
2022-10-05T16:53:55.981Z,6.70
2022-10-05T16:56:27.609Z,6.45
2022-10-05T16:59:25.831Z,6.28
2022-10-05T17:02:15.045Z,6.53
2022-10-05T17:05:03.462Z,6.13
2022-10-05T17:07:29.913Z,7.57
2022-10-05T17:10:05.810Z,6.68
2022-10-05T17:12:42.847Z,4.80
2022-10-05T17:15:31.553Z,6.07
2022-10-05T17:18:19.821Z,7.07
2022-10-05T17:21:00.866Z,6.57
2022-10-05T17:23:42.512Z,8.18
2022-10-05T17:26:55.172Z,7.15
2022-10-05T17:29:52.273Z,8.98
2022-10-05T17:32:18.891Z,14.55
2022-10-05T17:35:04.703Z,12.93
2022-10-05T17:37:35.670Z,17.25
2022-10-05T17:40:28.568Z,14.85
2022-10-05T17:43:25.359Z,17.73
2022-10-05T17:45:55.685Z,12.90
2022-10-05T17:49:03.814Z,11.98
2022-10-05T17:51:48.739Z,9.50
2022-10-05T17:54:48.133Z,9.18
2022-10-05T17:57:24.279Z,9.45
2022-10-05T17:59:53.802Z,9.73
2022-10-05T18:02:36.198Z,7.78
2022-10-05T18:05:12.123Z,6.68
2022-10-05T18:07:40.327Z,8.02
2022-10-05T18:10:09.918Z,7.85
2022-10-05T18:12:36.580Z,8.63
2022-10-05T18:15:23.126Z,6.50
2022-10-05T18:17:56.051Z,7.43
2022-10-05T18:20:26.459Z,6.25
2022-10-05T18:23:14.395Z,9.02
2022-10-05T18:26:01.355Z,14.18
2022-10-05T18:28:39.756Z,10.98
2022-10-05T18:31:23.478Z,39.58
2022-10-05T18:37:36.328Z,46.08
2022-10-05T18:40:21.598Z,14.48
2022-10-05T18:43:01.972Z,13.02
2022-10-05T18:45:56.367Z,11.88
2022-10-05T18:48:40.744Z,14.73
2022-10-05T18:51:29.015Z,14.63
2022-10-05T18:54:31.784Z,16.65
2022-10-05T18:57:02.989Z,18.50
2022-10-05T18:59:42.368Z,18.15
2022-10-05T19:02:17.121Z,16.80
2022-10-05T19:05:04.833Z,18.10
2022-10-05T19:07:47.753Z,14.43
2022-10-05T19:10:19.950Z,13.60
2022-10-05T19:13:04.915Z,14.75
2022-10-05T19:16:06.871Z,14.52
2022-10-05T19:19:09.368Z,16.15
2022-10-05T19:21:48.418Z,16.75
2022-10-05T19:24:33.764Z,17.50
2022-10-05T19:27:12.150Z,12.52
2022-10-05T19:29:56.978Z,15.50
2022-10-05T19:32:57.365Z,14.02
2022-10-05T19:35:23.785Z,11.25
2022-10-05T19:38:20.864Z,14.10
2022-10-05T19:41:00.088Z,12.68
2022-10-05T19:43:41.567Z,12.77
2022-10-05T19:46:19.971Z,10.63
2022-10-05T19:48:54.384Z,15.55
2022-10-05T19:51:25.355Z,10.50
2022-10-05T19:53:55.924Z,9.68
2022-10-05T19:56:25.528Z,10.45
2022-10-05T19:59:00.307Z,9.30
2022-10-05T20:01:33.989Z,8.30
2022-10-05T20:04:01.124Z,12.48
2022-10-05T20:06:29.459Z,7.82
2022-10-05T20:09:04.469Z,8.07
2022-10-05T20:11:32.368Z,8.32
2022-10-05T20:14:01.578Z,12.30
2022-10-05T20:16:48.820Z,12.13
2022-10-05T20:19:54.566Z,9.27
2022-10-05T20:22:23.779Z,9.93
2022-10-05T20:24:52.429Z,11.00
2022-10-05T20:27:44.450Z,8.25
2022-10-05T20:30:19.705Z,10.30
2022-10-05T20:32:57.538Z,9.18
2022-10-05T20:35:27.684Z,7.90
2022-10-05T20:37:59.055Z,8.75
2022-10-05T20:40:27.518Z,7.13
2022-10-05T20:42:54.029Z,8.77
2022-10-05T20:45:20.911Z,6.15
2022-10-05T20:47:47.517Z,10.00
2022-10-05T20:50:14.919Z,7.35
2022-10-05T20:52:41.569Z,7.03
2022-10-05T20:55:10.767Z,7.60
2022-10-05T20:57:46.018Z,6.95
2022-10-05T21:00:13.265Z,6.20
2022-10-05T21:02:39.950Z,8.40
2022-10-05T21:05:07.683Z,9.43
2022-10-05T21:07:34.800Z,7.68
2022-10-05T21:10:03.280Z,7.40
2022-10-05T21:12:30.152Z,7.13
2022-10-05T21:14:56.642Z,10.20
2022-10-05T21:17:23.131Z,8.02
2022-10-05T21:19:50.214Z,6.97
2022-10-05T21:22:16.763Z,6.68
2022-10-05T21:24:43.241Z,8.02
2022-10-05T21:27:10.179Z,6.95
2022-10-05T21:29:37.131Z,8.77
2022-10-05T21:32:08.403Z,10.15
2022-10-05T21:34:35.135Z,6.28
2022-10-05T21:37:01.663Z,7.93
2022-10-05T21:39:28.155Z,7.07
2022-10-05T21:41:54.698Z,9.20
2022-10-05T21:44:21.211Z,10.05
2022-10-05T21:46:48.404Z,9.38
2022-10-05T21:49:19.539Z,8.15
2022-10-05T21:51:47.224Z,7.93
2022-10-05T21:54:16.778Z,6.82
2022-10-05T21:56:47.789Z,8.38
2022-10-05T21:59:18.765Z,7.03
2022-10-05T22:01:45.916Z,6.82
2022-10-05T22:04:12.448Z,7.32
2022-10-05T22:06:38.961Z,7.40
2022-10-05T22:09:05.446Z,7.10
2022-10-05T22:11:32.207Z,6.90
2022-10-05T22:14:02.617Z,8.10
2022-10-05T22:16:36.574Z,7.55
2022-10-05T22:19:05.409Z,6.75
2022-10-05T22:21:34.344Z,7.45
2022-10-05T22:24:02.371Z,11.23
2022-10-05T22:26:28.959Z,11.38
2022-10-05T22:28:56.772Z,13.32
2022-10-05T22:31:23.726Z,9.35
2022-10-05T22:33:50.354Z,9.50
2022-10-05T22:36:16.938Z,8.93
2022-10-05T22:38:44.768Z,6.97
2022-10-05T22:41:12.613Z,10.00
2022-10-05T22:43:39.326Z,9.50
2022-10-05T22:46:11.199Z,6.97
2022-10-05T22:48:38.504Z,6.53
2022-10-05T22:51:05.641Z,7.25
2022-10-05T22:53:32.447Z,6.93
2022-10-05T22:56:04.891Z,8.15
2022-10-05T22:58:31.561Z,7.15
2022-10-05T23:01:03.937Z,7.25
2022-10-05T23:03:31.916Z,8.43
2022-10-05T23:06:04.531Z,5.88
2022-10-05T23:08:33.062Z,7.97
2022-10-05T23:11:07.540Z,6.25
2022-10-05T23:13:34.259Z,8.23
2022-10-05T23:16:09.059Z,6.28
2022-10-05T23:18:35.981Z,7.43
2022-10-05T23:21:03.539Z,7.45
2022-10-05T23:23:30.043Z,9.40
2022-10-05T23:26:00.602Z,6.70
2022-10-05T23:28:28.560Z,7.03
2022-10-05T23:31:02.792Z,9.27
2022-10-05T23:33:29.624Z,7.10
2022-10-05T23:36:04.662Z,7.30
2022-10-05T23:38:31.492Z,7.70
2022-10-05T23:40:59.748Z,6.43
2022-10-05T23:43:27.049Z,8.88
2022-10-05T23:45:53.626Z,10.93
2022-10-05T23:48:20.141Z,12.15
2022-10-05T23:50:47.479Z,9.18
2022-10-05T23:53:14.794Z,7.25
2022-10-05T23:55:41.599Z,12.30
2022-10-05T23:58:08.722Z,8.60
